Avoca, Iowa
Current Conditions -  °F | °C
As of 2:15 AM on Friday 19 Dec 2014 (Local Time) from KHNR Reporting Station
Overcast Overcast  
Wind Chill: 24°   Ceiling: 900
Heat Index: 30°   Visibility: 7mi
Dew Point: 30°   Wind: 6mph
Humidity: 100%   Direction: 190°S
Pressure: 30.26"   Gusts: NA
Location:  41.48°N, 95.34°W
Report Text: KHNR 190815Z AUTO 19005KT 7SM OVC009 M01/M01 A3026 RMK AO2
Loading
Personal Weather Stations






























Interactive Weather Map New forecast layout! Learn more

10-Day Weather Forecast

Advertisements
Track Severe Weather on mobile